BVO weather

Bartlesville Municipal Airport
Bartlesville, Oklahoma, United States

Public forecast

Using degrees Fahrenheit for public forecast. Weather courtesy of forecast.io.

Current aviation weather report (METAR) for Bartlesville Municipal Airport

Retrieved 2019/11/13 21:53 UTC (15 minutes ago):

KBVO 132153Z AUTO 20010G21KT 10SM CLR 10/M10 A3003 RMK AO2 SLP170 T01001100

Aviation forecast (TAF) for Bartlesville Municipal Airport

Retrieved 2019/11/13 18:33 UTC (4 hours ago):

TAF KBVO 131731Z 1318/1418 18011G23KT P6SM SKC FM140100 19005KT P6SM FEW250 FM140800 35005KT P6SM FEW030